sensor_id;sensor_type;location;lat;lon;timestamp;temperature;humidity
10901;DHT22;5503;53.208;10.392;2022-08-03T00:01:06;21.70;72.30
10901;DHT22;5503;53.208;10.392;2022-08-03T00:18:17;21.60;77.10
10901;DHT22;5503;53.208;10.392;2022-08-03T00:30:33;21.70;79.40
10901;DHT22;5503;53.208;10.392;2022-08-03T00:33:00;21.80;81.90
10901;DHT22;5503;53.208;10.392;2022-08-03T00:35:29;21.80;82.50
10901;DHT22;5503;53.208;10.392;2022-08-03T00:37:57;21.80;83.50
10901;DHT22;5503;53.208;10.392;2022-08-03T00:42:53;21.80;87.70
10901;DHT22;5503;53.208;10.392;2022-08-03T00:45:21;21.70;81.60
10901;DHT22;5503;53.208;10.392;2022-08-03T00:50:16;21.70;74.70
10901;DHT22;5503;53.208;10.392;2022-08-03T00:52:45;21.80;73.60
10901;DHT22;5503;53.208;10.392;2022-08-03T00:55:13;21.70;73.40
10901;DHT22;5503;53.208;10.392;2022-08-03T00:57:41;21.70;76.30
10901;DHT22;5503;53.208;10.392;2022-08-03T01:00:10;21.70;80.80
10901;DHT22;5503;53.208;10.392;2022-08-03T01:02:38;21.60;83.20
10901;DHT22;5503;53.208;10.392;2022-08-03T01:05:06;21.60;85.90
10901;DHT22;5503;53.208;10.392;2022-08-03T01:07:48;21.60;88.20
10901;DHT22;5503;53.208;10.392;2022-08-03T01:10:24;21.40;88.20
10901;DHT22;5503;53.208;10.392;2022-08-03T01:12:58;21.40;89.40
10901;DHT22;5503;53.208;10.392;2022-08-03T01:15:30;21.30;90.30
10901;DHT22;5503;53.208;10.392;2022-08-03T01:18:06;21.20;90.30
10901;DHT22;5503;53.208;10.392;2022-08-03T01:20:36;21.10;90.10
10901;DHT22;5503;53.208;10.392;2022-08-03T01:26:37;21.00;93.60
10901;DHT22;5503;53.208;10.392;2022-08-03T01:29:29;20.90;93.30
10901;DHT22;5503;53.208;10.392;2022-08-03T01:31:58;20.80;94.80
10901;DHT22;5503;53.208;10.392;2022-08-03T01:34:30;20.60;95.00
10901;DHT22;5503;53.208;10.392;2022-08-03T01:36:58;20.40;95.00
10901;DHT22;5503;53.208;10.392;2022-08-03T01:39:27;20.40;96.20
10901;DHT22;5503;53.208;10.392;2022-08-03T01:42:00;19.10;97.20
10901;DHT22;5503;53.208;10.392;2022-08-03T01:44:35;20.30;99.60
10901;DHT22;5503;53.208;10.392;2022-08-03T01:47:03;20.30;99.90
10901;DHT22;5503;53.208;10.392;2022-08-03T01:49:34;20.10;99.90
10901;DHT22;5503;53.208;10.392;2022-08-03T01:52:03;20.10;99.90
10901;DHT22;5503;53.208;10.392;2022-08-03T01:54:31;20.00;99.90
10901;DHT22;5503;53.208;10.392;2022-08-03T01:57:02;19.90;99.90
10901;DHT22;5503;53.208;10.392;2022-08-03T01:59:33;19.80;99.90
10901;DHT22;5503;53.208;10.392;2022-08-03T02:02:01;19.80;99.90
10901;DHT22;5503;53.208;10.392;2022-08-03T02:04:29;19.80;99.90
10901;DHT22;5503;53.208;10.392;2022-08-03T02:06:56;19.70;99.90
10901;DHT22;5503;53.208;10.392;2022-08-03T02:09:24;19.70;99.90
10901;DHT22;5503;53.208;10.392;2022-08-03T02:11:53;19.50;99.90
10901;DHT22;5503;53.208;10.392;2022-08-03T02:14:21;19.60;99.90
10901;DHT22;5503;53.208;10.392;2022-08-03T02:16:50;19.50;99.90
10901;DHT22;5503;53.208;10.392;2022-08-03T02:21:48;19.50;99.90
10901;DHT22;5503;53.208;10.392;2022-08-03T02:26:44;19.40;99.90
10901;DHT22;5503;53.208;10.392;2022-08-03T02:29:15;19.40;99.90
10901;DHT22;5503;53.208;10.392;2022-08-03T02:31:44;19.40;99.90
10901;DHT22;5503;53.208;10.392;2022-08-03T02:34:14;19.40;99.90
10901;DHT22;5503;53.208;10.392;2022-08-03T02:36:46;19.30;99.90
10901;DHT22;5503;53.208;10.392;2022-08-03T02:39:18;21.10;99.90
10901;DHT22;5503;53.208;10.392;2022-08-03T02:41:48;19.20;99.90
10901;DHT22;5503;53.208;10.392;2022-08-03T02:44:18;19.10;99.90
10901;DHT22;5503;53.208;10.392;2022-08-03T02:49:16;22.50;99.90
10901;DHT22;5503;53.208;10.392;2022-08-03T02:54:15;19.10;99.90
10901;DHT22;5503;53.208;10.392;2022-08-03T02:56:44;19.20;99.90
10901;DHT22;5503;53.208;10.392;2022-08-03T02:59:13;19.00;99.90
10901;DHT22;5503;53.208;10.392;2022-08-03T03:01:43;19.20;99.90
10901;DHT22;5503;53.208;10.392;2022-08-03T03:06:40;19.10;99.90
10901;DHT22;5503;53.208;10.392;2022-08-03T03:09:07;19.00;99.90
10901;DHT22;5503;53.208;10.392;2022-08-03T03:11:37;19.00;99.90
10901;DHT22;5503;53.208;10.392;2022-08-03T03:16:32;18.90;99.90
10901;DHT22;5503;53.208;10.392;2022-08-03T03:19:00;18.90;99.90
10901;DHT22;5503;53.208;10.392;2022-08-03T03:21:29;18.90;99.90
10901;DHT22;5503;53.208;10.392;2022-08-03T03:23:58;18.80;99.90
10901;DHT22;5503;53.208;10.392;2022-08-03T03:26:26;18.80;99.90
10901;DHT22;5503;53.208;10.392;2022-08-03T03:31:20;18.70;99.90
10901;DHT22;5503;53.208;10.392;2022-08-03T03:41:12;18.60;99.90
10901;DHT22;5503;53.208;10.392;2022-08-03T03:51:01;18.60;99.90
10901;DHT22;5503;53.208;10.392;2022-08-03T03:58:24;18.50;99.90
10901;DHT22;5503;53.208;10.392;2022-08-03T04:03:19;18.40;99.90
10901;DHT22;5503;53.208;10.392;2022-08-03T04:11:35;18.30;99.90
10901;DHT22;5503;53.208;10.392;2022-08-03T04:14:07;18.20;99.90
10901;DHT22;5503;53.208;10.392;2022-08-03T04:16:37;18.20;99.90
10901;DHT22;5503;53.208;10.392;2022-08-03T04:19:08;18.20;99.90
10901;DHT22;5503;53.208;10.392;2022-08-03T04:21:39;18.30;99.90
10901;DHT22;5503;53.208;10.392;2022-08-03T04:24:08;18.20;99.90
10901;DHT22;5503;53.208;10.392;2022-08-03T04:26:39;18.30;99.90
10901;DHT22;5503;53.208;10.392;2022-08-03T04:29:08;18.30;99.90
10901;DHT22;5503;53.208;10.392;2022-08-03T04:31:37;18.40;99.90
10901;DHT22;5503;53.208;10.392;2022-08-03T04:34:06;18.40;99.90
10901;DHT22;5503;53.208;10.392;2022-08-03T04:36:37;18.50;99.90
10901;DHT22;5503;53.208;10.392;2022-08-03T04:39:07;18.50;99.90
10901;DHT22;5503;53.208;10.392;2022-08-03T04:41:37;18.40;99.90
10901;DHT22;5503;53.208;10.392;2022-08-03T04:44:07;18.50;99.90
10901;DHT22;5503;53.208;10.392;2022-08-03T04:46:37;18.50;99.90
10901;DHT22;5503;53.208;10.392;2022-08-03T04:51:33;18.60;99.90
10901;DHT22;5503;53.208;10.392;2022-08-03T04:54:02;18.60;99.90
10901;DHT22;5503;53.208;10.392;2022-08-03T05:01:28;18.80;99.90
10901;DHT22;5503;53.208;10.392;2022-08-03T05:08:49;18.90;99.90
10901;DHT22;5503;53.208;10.392;2022-08-03T05:16:11;19.10;99.90
10901;DHT22;5503;53.208;10.392;2022-08-03T05:18:40;19.20;99.90
10901;DHT22;5503;53.208;10.392;2022-08-03T05:21:08;19.20;99.90
10901;DHT22;5503;53.208;10.392;2022-08-03T05:35:53;19.70;99.90
10901;DHT22;5503;53.208;10.392;2022-08-03T05:53:05;20.30;99.90
10901;DHT22;5503;53.208;10.392;2022-08-03T05:55:32;20.30;99.90
10901;DHT22;5503;53.208;10.392;2022-08-03T06:10:20;20.90;99.90
10901;DHT22;5503;53.208;10.392;2022-08-03T06:17:46;21.20;98.40
10901;DHT22;5503;53.208;10.392;2022-08-03T06:20:15;21.30;97.70
10901;DHT22;5503;53.208;10.392;2022-08-03T06:27:38;21.70;94.70
10901;DHT22;5503;53.208;10.392;2022-08-03T06:30:07;21.70;93.10
10901;DHT22;5503;53.208;10.392;2022-08-03T06:37:30;22.10;92.90
10901;DHT22;5503;53.208;10.392;2022-08-03T06:42:24;22.40;94.20
10901;DHT22;5503;53.208;10.392;2022-08-03T06:44:53;22.40;92.70
10901;DHT22;5503;53.208;10.392;2022-08-03T07:02:04;23.30;61.40
10901;DHT22;5503;53.208;10.392;2022-08-03T07:19:17;24.10;39.50
10901;DHT22;5503;53.208;10.392;2022-08-03T07:34:01;24.90;34.30
10901;DHT22;5503;53.208;10.392;2022-08-03T07:36:29;25.80;30.50
10901;DHT22;5503;53.208;10.392;2022-08-03T07:43:51;25.10;29.10
10901;DHT22;5503;53.208;10.392;2022-08-03T07:53:41;25.30;23.90
10901;DHT22;5503;53.208;10.392;2022-08-03T07:58:35;25.50;26.10
10901;DHT22;5503;53.208;10.392;2022-08-03T08:01:03;25.50;22.30
10901;DHT22;5503;53.208;10.392;2022-08-03T08:10:52;26.00;20.10
10901;DHT22;5503;53.208;10.392;2022-08-03T08:13:19;26.00;18.00
10901;DHT22;5503;53.208;10.392;2022-08-03T08:18:14;26.30;14.50
10901;DHT22;5503;53.208;10.392;2022-08-03T08:28:04;26.70;10.60
10901;DHT22;5503;53.208;10.392;2022-08-03T08:30:32;26.80;14.00
10901;DHT22;5503;53.208;10.392;2022-08-03T08:40:22;27.40;13.10
10901;DHT22;5503;53.208;10.392;2022-08-03T08:45:18;27.60;11.00
10901;DHT22;5503;53.208;10.392;2022-08-03T08:47:47;27.70;7.50
10901;DHT22;5503;53.208;10.392;2022-08-03T08:50:18;27.70;9.20
10901;DHT22;5503;53.208;10.392;2022-08-03T08:52:46;27.70;6.40
10901;DHT22;5503;53.208;10.392;2022-08-03T08:55:17;27.70;6.10
10901;DHT22;5503;53.208;10.392;2022-08-03T08:57:48;27.70;8.00
10901;DHT22;5503;53.208;10.392;2022-08-03T09:00:17;27.80;11.80
10901;DHT22;5503;53.208;10.392;2022-08-03T09:02:44;27.80;9.80
10901;DHT22;5503;53.208;10.392;2022-08-03T09:05:12;27.80;6.00
10901;DHT22;5503;53.208;10.392;2022-08-03T09:07:40;27.80;5.50
10901;DHT22;5503;53.208;10.392;2022-08-03T09:10:09;27.90;5.40
10901;DHT22;5503;53.208;10.392;2022-08-03T09:12:37;27.90;6.00
10901;DHT22;5503;53.208;10.392;2022-08-03T09:15:21;27.90;8.60
10901;DHT22;5503;53.208;10.392;2022-08-03T09:17:50;27.80;9.10
10901;DHT22;5503;53.208;10.392;2022-08-03T09:20:18;28.00;12.60
10901;DHT22;5503;53.208;10.392;2022-08-03T09:22:53;28.10;6.30
10901;DHT22;5503;53.208;10.392;2022-08-03T09:25:27;28.20;4.70
10901;DHT22;5503;53.208;10.392;2022-08-03T09:30:23;28.20;1.60
10901;DHT22;5503;53.208;10.392;2022-08-03T09:32:50;28.30;3.60
10901;DHT22;5503;53.208;10.392;2022-08-03T09:35:26;28.40;12.50
10901;DHT22;5503;53.208;10.392;2022-08-03T09:38:12;28.50;8.70
10901;DHT22;5503;53.208;10.392;2022-08-03T09:40:39;28.50;10.40
10901;DHT22;5503;53.208;10.392;2022-08-03T09:43:07;28.70;8.50
10901;DHT22;5503;53.208;10.392;2022-08-03T09:45:36;28.70;6.80
10901;DHT22;5503;53.208;10.392;2022-08-03T09:48:23;28.90;3.40
10901;DHT22;5503;53.208;10.392;2022-08-03T09:50:51;28.90;3.50
10901;DHT22;5503;53.208;10.392;2022-08-03T09:53:19;29.10;1.00
10901;DHT22;5503;53.208;10.392;2022-08-03T09:55:53;29.10;1.00
10901;DHT22;5503;53.208;10.392;2022-08-03T09:58:22;29.20;1.00
10901;DHT22;5503;53.208;10.392;2022-08-03T10:00:56;29.30;1.00
10901;DHT22;5503;53.208;10.392;2022-08-03T10:03:24;29.30;1.00
10901;DHT22;5503;53.208;10.392;2022-08-03T10:08:19;29.10;1.00
10901;DHT22;5503;53.208;10.392;2022-08-03T10:10:48;28.90;1.00
10901;DHT22;5503;53.208;10.392;2022-08-03T10:13:17;29.00;5.10
10901;DHT22;5503;53.208;10.392;2022-08-03T10:15:45;29.20;4.10
10901;DHT22;5503;53.208;10.392;2022-08-03T10:18:13;29.40;5.50
10901;DHT22;5503;53.208;10.392;2022-08-03T10:20:44;29.50;2.20
10901;DHT22;5503;53.208;10.392;2022-08-03T10:23:13;29.60;1.00
10901;DHT22;5503;53.208;10.392;2022-08-03T10:25:43;29.70;1.00
10901;DHT22;5503;53.208;10.392;2022-08-03T10:28:15;29.80;1.00
10901;DHT22;5503;53.208;10.392;2022-08-03T10:30:47;29.70;1.00
10901;DHT22;5503;53.208;10.392;2022-08-03T10:33:19;30.10;1.00
10901;DHT22;5503;53.208;10.392;2022-08-03T10:35:51;30.20;1.00
10901;DHT22;5503;53.208;10.392;2022-08-03T10:38:22;30.40;1.00
10901;DHT22;5503;53.208;10.392;2022-08-03T10:40:52;30.50;1.00
10901;DHT22;5503;53.208;10.392;2022-08-03T10:43:21;30.70;1.00
10901;DHT22;5503;53.208;10.392;2022-08-03T10:45:49;30.70;1.00
10901;DHT22;5503;53.208;10.392;2022-08-03T10:48:18;30.70;1.00
10901;DHT22;5503;53.208;10.392;2022-08-03T10:50:47;30.80;1.00
10901;DHT22;5503;53.208;10.392;2022-08-03T10:53:15;30.80;1.00
10901;DHT22;5503;53.208;10.392;2022-08-03T10:55:44;30.80;1.00
10901;DHT22;5503;53.208;10.392;2022-08-03T10:58:48;30.70;1.00
10901;DHT22;5503;53.208;10.392;2022-08-03T11:01:17;30.70;1.00
10901;DHT22;5503;53.208;10.392;2022-08-03T11:04:18;30.80;1.00
10901;DHT22;5503;53.208;10.392;2022-08-03T11:06:46;30.90;1.00
10901;DHT22;5503;53.208;10.392;2022-08-03T11:09:15;31.00;1.00
10901;DHT22;5503;53.208;10.392;2022-08-03T11:11:45;31.10;1.00
10901;DHT22;5503;53.208;10.392;2022-08-03T11:14:14;31.20;1.00
10901;DHT22;5503;53.208;10.392;2022-08-03T11:16:44;31.40;1.00
10901;DHT22;5503;53.208;10.392;2022-08-03T11:19:13;31.50;1.00
10901;DHT22;5503;53.208;10.392;2022-08-03T11:21:57;31.60;1.00
10901;DHT22;5503;53.208;10.392;2022-08-03T11:24:55;31.70;1.00
10901;DHT22;5503;53.208;10.392;2022-08-03T11:27:23;31.70;1.00
10901;DHT22;5503;53.208;10.392;2022-08-03T11:29:55;31.80;1.00
10901;DHT22;5503;53.208;10.392;2022-08-03T11:32:51;31.80;1.00
10901;DHT22;5503;53.208;10.392;2022-08-03T11:35:19;31.70;1.00
10901;DHT22;5503;53.208;10.392;2022-08-03T11:38:10;31.40;1.00
10901;DHT22;5503;53.208;10.392;2022-08-03T11:40:42;31.30;1.00
10901;DHT22;5503;53.208;10.392;2022-08-03T11:43:44;31.40;1.00
10901;DHT22;5503;53.208;10.392;2022-08-03T11:46:12;31.70;1.00
10901;DHT22;5503;53.208;10.392;2022-08-03T11:48:44;31.90;1.00
10901;DHT22;5503;53.208;10.392;2022-08-03T11:51:20;31.90;1.00
10901;DHT22;5503;53.208;10.392;2022-08-03T11:53:54;32.00;1.00
10901;DHT22;5503;53.208;10.392;2022-08-03T11:56:22;32.00;1.00
10901;DHT22;5503;53.208;10.392;2022-08-03T11:58:50;32.10;1.00
10901;DHT22;5503;53.208;10.392;2022-08-03T12:01:19;32.10;1.00
10901;DHT22;5503;53.208;10.392;2022-08-03T12:03:47;32.20;1.00
10901;DHT22;5503;53.208;10.392;2022-08-03T12:06:15;32.30;1.00
10901;DHT22;5503;53.208;10.392;2022-08-03T12:08:45;32.30;1.00
10901;DHT22;5503;53.208;10.392;2022-08-03T12:11:14;32.30;1.00
10901;DHT22;5503;53.208;10.392;2022-08-03T12:13:42;32.20;1.00
10901;DHT22;5503;53.208;10.392;2022-08-03T12:16:16;32.30;1.00
10901;DHT22;5503;53.208;10.392;2022-08-03T12:18:44;32.30;1.00
10901;DHT22;5503;53.208;10.392;2022-08-03T12:21:11;34.90;1.00
10901;DHT22;5503;53.208;10.392;2022-08-03T12:26:08;32.80;1.00
10901;DHT22;5503;53.208;10.392;2022-08-03T12:28:36;32.80;1.00
10901;DHT22;5503;53.208;10.392;2022-08-03T12:31:05;32.70;1.00
10901;DHT22;5503;53.208;10.392;2022-08-03T12:33:55;32.80;1.00
10901;DHT22;5503;53.208;10.392;2022-08-03T12:36:22;32.90;1.00
10901;DHT22;5503;53.208;10.392;2022-08-03T12:38:54;33.00;1.00
10901;DHT22;5503;53.208;10.392;2022-08-03T12:41:27;33.00;1.00
10901;DHT22;5503;53.208;10.392;2022-08-03T12:43:56;33.10;1.00
10901;DHT22;5503;53.208;10.392;2022-08-03T12:46:29;33.30;1.00
10901;DHT22;5503;53.208;10.392;2022-08-03T12:49:07;33.30;1.00
10901;DHT22;5503;53.208;10.392;2022-08-03T12:51:36;33.40;1.00
10901;DHT22;5503;53.208;10.392;2022-08-03T12:54:04;33.40;1.00
10901;DHT22;5503;53.208;10.392;2022-08-03T12:56:31;33.40;1.00
10901;DHT22;5503;53.208;10.392;2022-08-03T12:59:00;33.30;1.00
10901;DHT22;5503;53.208;10.392;2022-08-03T13:01:35;33.10;1.00
10901;DHT22;5503;53.208;10.392;2022-08-03T13:04:02;33.00;1.00
10901;DHT22;5503;53.208;10.392;2022-08-03T13:06:30;33.00;1.00
10901;DHT22;5503;53.208;10.392;2022-08-03T13:09:02;35.10;1.00
10901;DHT22;5503;53.208;10.392;2022-08-03T13:13:58;32.90;1.00
10901;DHT22;5503;53.208;10.392;2022-08-03T13:16:25;32.90;1.00
10901;DHT22;5503;53.208;10.392;2022-08-03T13:23:48;33.10;1.00
10901;DHT22;5503;53.208;10.392;2022-08-03T13:31:11;33.10;1.00
10901;DHT22;5503;53.208;10.392;2022-08-03T13:36:06;33.00;1.00
10901;DHT22;5503;53.208;10.392;2022-08-03T13:38:33;32.80;1.00
10901;DHT22;5503;53.208;10.392;2022-08-03T13:41:01;32.80;1.00
10901;DHT22;5503;53.208;10.392;2022-08-03T13:43:28;31.60;1.00
10901;DHT22;5503;53.208;10.392;2022-08-03T13:48:24;32.50;1.00
10901;DHT22;5503;53.208;10.392;2022-08-03T13:58:13;32.30;1.00
10901;DHT22;5503;53.208;10.392;2022-08-03T14:03:07;32.30;1.00
10901;DHT22;5503;53.208;10.392;2022-08-03T14:05:36;32.30;1.00
10901;DHT22;5503;53.208;10.392;2022-08-03T14:08:04;32.10;1.00
10901;DHT22;5503;53.208;10.392;2022-08-03T14:10:33;32.20;1.00
10901;DHT22;5503;53.208;10.392;2022-08-03T14:13:00;32.20;1.00
10901;DHT22;5503;53.208;10.392;2022-08-03T14:15:27;32.20;1.00
10901;DHT22;5503;53.208;10.392;2022-08-03T14:20:21;32.60;1.00
10901;DHT22;5503;53.208;10.392;2022-08-03T14:22:50;32.60;1.00
10901;DHT22;5503;53.208;10.392;2022-08-03T14:30:12;32.40;1.00
10901;DHT22;5503;53.208;10.392;2022-08-03T14:35:07;32.40;1.00
10901;DHT22;5503;53.208;10.392;2022-08-03T14:37:35;32.50;1.00
10901;DHT22;5503;53.208;10.392;2022-08-03T14:40:04;32.40;1.00
10901;DHT22;5503;53.208;10.392;2022-08-03T14:42:31;32.30;1.00
10901;DHT22;5503;53.208;10.392;2022-08-03T14:44:58;32.30;1.00
10901;DHT22;5503;53.208;10.392;2022-08-03T14:47:25;32.30;1.00
10901;DHT22;5503;53.208;10.392;2022-08-03T14:54:46;32.30;1.00
10901;DHT22;5503;53.208;10.392;2022-08-03T14:57:15;32.60;1.00
10901;DHT22;5503;53.208;10.392;2022-08-03T15:09:31;32.40;1.00
10901;DHT22;5503;53.208;10.392;2022-08-03T15:11:58;32.40;1.00
10901;DHT22;5503;53.208;10.392;2022-08-03T15:14:26;32.30;1.00
10901;DHT22;5503;53.208;10.392;2022-08-03T15:19:21;32.60;1.00
10901;DHT22;5503;53.208;10.392;2022-08-03T15:31:39;32.40;1.00
10901;DHT22;5503;53.208;10.392;2022-08-03T15:39:01;32.30;1.00
10901;DHT22;5503;53.208;10.392;2022-08-03T15:41:28;32.40;1.00
10901;DHT22;5503;53.208;10.392;2022-08-03T15:46:22;32.40;1.00
10901;DHT22;5503;53.208;10.392;2022-08-03T15:48:50;32.40;1.00
10901;DHT22;5503;53.208;10.392;2022-08-03T15:51:17;32.30;1.00
10901;DHT22;5503;53.208;10.392;2022-08-03T15:58:39;32.20;1.00
10901;DHT22;5503;53.208;10.392;2022-08-03T16:01:09;32.30;1.00
10901;DHT22;5503;53.208;10.392;2022-08-03T16:06:06;32.40;1.00
10901;DHT22;5503;53.208;10.392;2022-08-03T16:08:33;32.10;1.00
10901;DHT22;5503;53.208;10.392;2022-08-03T16:23:18;32.40;1.00
10901;DHT22;5503;53.208;10.392;2022-08-03T16:30:40;32.30;1.00
10901;DHT22;5503;53.208;10.392;2022-08-03T16:33:08;32.30;1.00
10901;DHT22;5503;53.208;10.392;2022-08-03T16:35:35;32.10;1.00
10901;DHT22;5503;53.208;10.392;2022-08-03T16:40:31;31.80;1.00
10901;DHT22;5503;53.208;10.392;2022-08-03T16:50:20;31.90;1.00
10901;DHT22;5503;53.208;10.392;2022-08-03T16:57:46;32.00;1.00
10901;DHT22;5503;53.208;10.392;2022-08-03T17:00:13;31.90;1.00
10901;DHT22;5503;53.208;10.392;2022-08-03T17:02:42;31.80;1.00
10901;DHT22;5503;53.208;10.392;2022-08-03T17:05:11;31.80;1.00
10901;DHT22;5503;53.208;10.392;2022-08-03T17:07:39;31.80;1.00
10901;DHT22;5503;53.208;10.392;2022-08-03T17:10:07;31.60;1.00
10901;DHT22;5503;53.208;10.392;2022-08-03T17:15:04;29.30;1.00
10901;DHT22;5503;53.208;10.392;2022-08-03T17:17:32;31.40;1.00
10901;DHT22;5503;53.208;10.392;2022-08-03T17:20:00;31.40;1.00
10901;DHT22;5503;53.208;10.392;2022-08-03T17:22:32;31.40;1.00
10901;DHT22;5503;53.208;10.392;2022-08-03T17:25:04;31.40;1.00
10901;DHT22;5503;53.208;10.392;2022-08-03T17:27:33;31.30;1.00
10901;DHT22;5503;53.208;10.392;2022-08-03T17:30:04;28.20;1.00
10901;DHT22;5503;53.208;10.392;2022-08-03T17:32:33;31.30;1.00
10901;DHT22;5503;53.208;10.392;2022-08-03T17:35:01;31.30;1.00
10901;DHT22;5503;53.208;10.392;2022-08-03T17:42:23;31.30;1.00
10901;DHT22;5503;53.208;10.392;2022-08-03T17:44:51;29.50;1.00
10901;DHT22;5503;53.208;10.392;2022-08-03T17:47:20;31.20;1.00
10901;DHT22;5503;53.208;10.392;2022-08-03T17:52:20;31.10;1.00
10901;DHT22;5503;53.208;10.392;2022-08-03T17:54:58;31.00;1.00
10901;DHT22;5503;53.208;10.392;2022-08-03T17:57:33;31.00;1.00
10901;DHT22;5503;53.208;10.392;2022-08-03T18:00:06;31.00;1.00
10901;DHT22;5503;53.208;10.392;2022-08-03T18:02:57;31.00;1.00
10901;DHT22;5503;53.208;10.392;2022-08-03T18:05:46;31.00;1.00
10901;DHT22;5503;53.208;10.392;2022-08-03T18:08:17;30.90;1.00
10901;DHT22;5503;53.208;10.392;2022-08-03T18:10:45;30.90;1.00
10901;DHT22;5503;53.208;10.392;2022-08-03T18:13:18;28.40;1.00
10901;DHT22;5503;53.208;10.392;2022-08-03T18:15:51;30.90;1.00
10901;DHT22;5503;53.208;10.392;2022-08-03T18:18:30;30.80;1.00
10901;DHT22;5503;53.208;10.392;2022-08-03T18:21:01;30.70;1.00
10901;DHT22;5503;53.208;10.392;2022-08-03T18:25:56;30.40;1.00
10901;DHT22;5503;53.208;10.392;2022-08-03T18:28:25;30.40;1.00
10901;DHT22;5503;53.208;10.392;2022-08-03T18:30:52;30.20;1.00
10901;DHT22;5503;53.208;10.392;2022-08-03T18:33:22;30.10;5.10
10901;DHT22;5503;53.208;10.392;2022-08-03T18:35:51;27.40;13.90
10901;DHT22;5503;53.208;10.392;2022-08-03T18:38:18;29.70;36.50
10901;DHT22;5503;53.208;10.392;2022-08-03T18:43:13;29.40;90.70
10901;DHT22;5503;53.208;10.392;2022-08-03T18:45:43;29.20;98.80
10901;DHT22;5503;53.208;10.392;2022-08-03T18:48:13;29.00;99.90
10901;DHT22;5503;53.208;10.392;2022-08-03T18:50:50;28.80;98.40
10901;DHT22;5503;53.208;10.392;2022-08-03T18:53:26;28.60;99.90
10901;DHT22;5503;53.208;10.392;2022-08-03T18:56:02;28.40;99.90
10901;DHT22;5503;53.208;10.392;2022-08-03T18:58:39;28.20;99.90
10901;DHT22;5503;53.208;10.392;2022-08-03T19:01:18;28.00;99.90
10901;DHT22;5503;53.208;10.392;2022-08-03T19:03:50;27.80;99.90
10901;DHT22;5503;53.208;10.392;2022-08-03T19:06:22;27.50;99.90
10901;DHT22;5503;53.208;10.392;2022-08-03T19:08:54;27.30;99.90
10901;DHT22;5503;53.208;10.392;2022-08-03T19:11:24;27.10;99.90
10901;DHT22;5503;53.208;10.392;2022-08-03T19:13:57;26.90;99.90
10901;DHT22;5503;53.208;10.392;2022-08-03T19:16:31;26.70;99.90
10901;DHT22;5503;53.208;10.392;2022-08-03T19:19:00;26.60;99.90
10901;DHT22;5503;53.208;10.392;2022-08-03T19:21:30;26.50;99.90
10901;DHT22;5503;53.208;10.392;2022-08-03T19:24:00;26.40;99.90
10901;DHT22;5503;53.208;10.392;2022-08-03T19:28:55;26.20;99.90
10901;DHT22;5503;53.208;10.392;2022-08-03T19:31:23;26.20;99.90
10901;DHT22;5503;53.208;10.392;2022-08-03T19:33:52;26.10;99.90
10901;DHT22;5503;53.208;10.392;2022-08-03T19:36:20;26.00;99.90
10901;DHT22;5503;53.208;10.392;2022-08-03T19:38:50;25.90;99.90
10901;DHT22;5503;53.208;10.392;2022-08-03T19:41:18;25.90;99.90
10901;DHT22;5503;53.208;10.392;2022-08-03T19:43:48;25.80;99.90
10901;DHT22;5503;53.208;10.392;2022-08-03T19:48:57;22.20;99.90
10901;DHT22;5503;53.208;10.392;2022-08-03T19:51:29;25.70;99.90
10901;DHT22;5503;53.208;10.392;2022-08-03T19:53:59;25.70;99.90
10901;DHT22;5503;53.208;10.392;2022-08-03T19:56:27;25.60;99.90
10901;DHT22;5503;53.208;10.392;2022-08-03T20:03:51;25.40;99.90
10901;DHT22;5503;53.208;10.392;2022-08-03T20:06:20;25.30;99.90
10901;DHT22;5503;53.208;10.392;2022-08-03T20:11:16;25.10;99.90
10901;DHT22;5503;53.208;10.392;2022-08-03T20:13:44;24.80;99.90
10901;DHT22;5503;53.208;10.392;2022-08-03T20:21:10;24.80;99.90
10901;DHT22;5503;53.208;10.392;2022-08-03T20:23:39;24.70;99.90
10901;DHT22;5503;53.208;10.392;2022-08-03T20:26:07;24.60;99.90
10901;DHT22;5503;53.208;10.392;2022-08-03T20:28:39;24.50;99.90
10901;DHT22;5503;53.208;10.392;2022-08-03T20:31:08;24.40;99.90
10901;DHT22;5503;53.208;10.392;2022-08-03T20:36:03;24.30;99.90
10901;DHT22;5503;53.208;10.392;2022-08-03T20:43:25;24.10;99.90
10901;DHT22;5503;53.208;10.392;2022-08-03T20:45:53;24.10;99.90
10901;DHT22;5503;53.208;10.392;2022-08-03T20:48:21;24.00;99.90
10901;DHT22;5503;53.208;10.392;2022-08-03T20:53:19;24.00;99.90
10901;DHT22;5503;53.208;10.392;2022-08-03T21:03:09;23.70;99.90
10901;DHT22;5503;53.208;10.392;2022-08-03T21:05:41;23.50;99.90
10901;DHT22;5503;53.208;10.392;2022-08-03T21:08:10;23.60;99.90
10901;DHT22;5503;53.208;10.392;2022-08-03T21:10:42;23.60;99.90
10901;DHT22;5503;53.208;10.392;2022-08-03T21:13:15;23.50;99.90
10901;DHT22;5503;53.208;10.392;2022-08-03T21:15:42;23.50;99.90
10901;DHT22;5503;53.208;10.392;2022-08-03T21:18:15;23.40;99.90
10901;DHT22;5503;53.208;10.392;2022-08-03T21:20:43;23.40;99.90
10901;DHT22;5503;53.208;10.392;2022-08-03T21:23:12;23.40;99.90
10901;DHT22;5503;53.208;10.392;2022-08-03T21:25:42;23.30;99.90
10901;DHT22;5503;53.208;10.392;2022-08-03T21:35:33;23.00;99.90
10901;DHT22;5503;53.208;10.392;2022-08-03T21:40:48;22.90;99.90
10901;DHT22;5503;53.208;10.392;2022-08-03T21:45:46;23.00;93.70
10901;DHT22;5503;53.208;10.392;2022-08-03T21:48:15;23.10;93.10
10901;DHT22;5503;53.208;10.392;2022-08-03T21:50:44;23.10;99.90
10901;DHT22;5503;53.208;10.392;2022-08-03T21:55:47;23.00;99.90
10901;DHT22;5503;53.208;10.392;2022-08-03T21:58:16;22.90;99.90
10901;DHT22;5503;53.208;10.392;2022-08-03T22:00:45;22.90;99.90
10901;DHT22;5503;53.208;10.392;2022-08-03T22:03:13;19.70;99.90
10901;DHT22;5503;53.208;10.392;2022-08-03T22:05:40;22.80;99.90
10901;DHT22;5503;53.208;10.392;2022-08-03T22:08:10;25.60;99.90
10901;DHT22;5503;53.208;10.392;2022-08-03T22:18:00;22.70;99.90
10901;DHT22;5503;53.208;10.392;2022-08-03T22:20:28;22.60;99.90
10901;DHT22;5503;53.208;10.392;2022-08-03T22:22:59;22.50;99.90
10901;DHT22;5503;53.208;10.392;2022-08-03T22:25:29;22.40;99.90
10901;DHT22;5503;53.208;10.392;2022-08-03T22:27:58;22.30;99.90
10901;DHT22;5503;53.208;10.392;2022-08-03T22:32:54;22.20;99.90
10901;DHT22;5503;53.208;10.392;2022-08-03T22:35:24;22.20;99.90
10901;DHT22;5503;53.208;10.392;2022-08-03T22:37:53;20.20;99.90
10901;DHT22;5503;53.208;10.392;2022-08-03T22:40:20;22.10;99.90
10901;DHT22;5503;53.208;10.392;2022-08-03T22:42:49;22.00;99.90
10901;DHT22;5503;53.208;10.392;2022-08-03T22:47:45;22.00;99.90
10901;DHT22;5503;53.208;10.392;2022-08-03T22:50:13;22.00;99.90
10901;DHT22;5503;53.208;10.392;2022-08-03T22:52:42;21.90;99.90
10901;DHT22;5503;53.208;10.392;2022-08-03T22:55:12;21.90;99.90
10901;DHT22;5503;53.208;10.392;2022-08-03T23:00:11;21.80;99.90
10901;DHT22;5503;53.208;10.392;2022-08-03T23:02:40;21.80;99.90
10901;DHT22;5503;53.208;10.392;2022-08-03T23:05:14;24.50;99.90
10901;DHT22;5503;53.208;10.392;2022-08-03T23:07:42;21.70;99.90